Time;durP1;ratioP1;P1;durP2;ratioP2;P2;SDS_P1;SDS_P2;PMS_P1;PMS_P2;Temp;Humidity;BMP_temperature;BMP_pressure;BME280_temperature;BME280_humidity;BME280_pressure;Samples;Min_cycle;Max_cycle;Signal;HPM_P1;HPM_P2
2022/01/17 00:01:12;;;;;;;15.40;2.20;;;5.30;99.90;;;;;;5006387;28;20046;-85
2022/01/17 00:03:38;;;;;;;20.42;2.58;;;5.30;99.90;;;;;;5011557;28;20103;-84
2022/01/17 00:06:04;;;;;;;24.50;3.15;;;5.40;99.90;;;;;;5004848;28;20041;-85
2022/01/17 00:08:30;;;;;;;14.23;2.72;;;5.50;99.90;;;;;;5003715;28;20034;-82
2022/01/17 00:10:56;;;;;;;16.40;2.15;;;5.50;99.90;;;;;;5001947;28;20497;-81
2022/01/17 00:13:26;;;;;;;14.73;2.15;;;5.60;99.90;;;;;;4988710;28;20034;-83
2022/01/17 00:16:09;;;;;;;22.85;3.08;;;5.40;99.90;;;;;;5004191;28;20045;-85
2022/01/17 00:21:06;;;;;;;19.48;2.58;;;5.50;99.90;;;;;;5003079;28;20055;-84
2022/01/17 00:23:32;;;;;;;24.38;4.07;;;5.50;99.90;;;;;;5002848;28;20084;-85
2022/01/17 00:25:58;;;;;;;22.35;3.33;;;5.50;99.90;;;;;;5005358;28;20588;-84
2022/01/17 00:28:24;;;;;;;18.05;2.85;;;5.30;99.90;;;;;;5002271;28;20038;-84
2022/01/17 00:30:50;;;;;;;19.90;2.38;;;5.40;99.90;;;;;;4997412;28;20049;-84
2022/01/17 00:33:16;;;;;;;19.42;3.17;;;5.10;99.90;;;;;;5000019;28;20418;-84
2022/01/17 00:35:41;;;;;;;16.15;2.13;;;5.30;99.90;;;;;;5001763;28;20061;-85
2022/01/17 00:38:07;;;;;;;27.17;3.55;;;5.20;99.90;;;;;;5002230;28;20038;-82
2022/01/17 00:40:33;;;;;;;12.82;1.77;;;5.30;99.90;;;;;;4989135;28;20038;-84
2022/01/17 00:42:58;;;;;;;16.88;2.78;;;5.40;99.90;;;;;;5003431;28;20046;-83
2022/01/17 00:45:27;;;;;;;16.77;2.75;;;5.20;99.90;;;;;;4993387;28;20037;-80
2022/01/17 00:47:57;;;;;;;19.88;2.70;;;5.30;99.90;;;;;;5023418;28;20033;-84
2022/01/17 00:50:25;;;;;;;18.70;2.97;;;7.50;99.90;;;;;;5004353;28;20050;-84
2022/01/17 00:52:51;;;;;;;22.08;3.28;;;4.90;99.90;;;;;;5000512;28;20074;-82
2022/01/17 00:55:16;;;;;;;19.38;2.45;;;5.30;99.90;;;;;;5002308;28;20554;-80
2022/01/17 00:57:42;;;;;;;13.98;2.10;;;5.20;99.90;;;;;;4985284;28;20138;-83
2022/01/17 01:00:09;;;;;;;22.33;1.95;;;5.30;99.90;;;;;;5003821;28;20041;-82
2022/01/17 01:02:35;;;;;;;12.60;1.88;;;5.30;99.90;;;;;;5002418;28;20468;-82
2022/01/17 01:05:02;;;;;;;16.10;2.60;;;7.70;99.90;;;;;;5000502;28;20410;-82
2022/01/17 01:07:28;;;;;;;22.15;2.42;;;5.20;99.90;;;;;;4996690;28;20048;-84
2022/01/17 01:10:03;;;;;;;21.40;2.45;;;5.30;99.90;;;;;;5003196;28;20472;-83
2022/01/17 01:12:29;;;;;;;20.55;2.42;;;5.20;99.90;;;;;;5002081;28;20490;-82
2022/01/17 01:14:55;;;;;;;18.40;2.22;;;5.10;99.90;;;;;;4999437;28;20074;-83
2022/01/17 01:17:36;;;;;;;19.02;2.22;;;7.30;99.90;;;;;;4984673;28;20038;-84
2022/01/17 01:28:32;;;;;;;17.30;2.45;;;5.10;99.90;;;;;;5000715;28;20054;-83
2022/01/17 01:30:59;;;;;;;11.82;1.77;;;5.20;99.90;;;;;;5000601;28;20141;-86
2022/01/17 01:33:30;;;;;;;11.65;2.38;;;5.20;99.90;;;;;;4998056;28;20053;-85
2022/01/17 01:36:07;;;;;;;18.77;2.53;;;5.20;99.90;;;;;;5007335;28;20121;-85
2022/01/17 01:38:33;;;;;;;6.80;1.67;;;5.20;99.90;;;;;;5008095;28;20045;-83
2022/01/17 01:40:59;;;;;;;21.40;3.55;;;5.00;99.90;;;;;;5003974;28;20494;-83
2022/01/17 01:43:25;;;;;;;19.58;2.35;;;5.20;99.90;;;;;;4998319;28;20054;-83
2022/01/17 01:45:59;;;;;;;14.65;1.85;;;5.20;99.90;;;;;;4999894;28;20045;-82
2022/01/17 01:48:25;;;;;;;16.23;2.00;;;5.00;99.90;;;;;;5001513;28;20397;-85
2022/01/17 01:50:51;;;;;;;23.92;2.50;;;5.50;99.90;;;;;;5001414;28;20038;-82
2022/01/17 01:53:17;;;;;;;23.83;3.38;;;5.00;99.90;;;;;;5003545;28;20103;-80
2022/01/17 01:55:43;;;;;;;19.65;2.58;;;5.10;99.90;;;;;;4996297;28;20563;-85
2022/01/17 01:58:09;;;;;;;19.10;2.40;;;4.80;99.90;;;;;;5000119;28;20108;-81
2022/01/17 02:00:35;;;;;;;24.33;3.30;;;5.00;99.90;;;;;;4993802;28;20462;-84
2022/01/17 02:03:01;;;;;;;16.15;2.60;;;5.10;99.90;;;;;;5000575;28;20038;-80
2022/01/17 02:05:26;;;;;;;17.17;1.88;;;4.90;99.90;;;;;;4998149;28;20042;-82
2022/01/17 02:07:52;;;;;;;19.40;2.25;;;5.20;99.90;;;;;;5007071;28;20038;-83
2022/01/17 02:10:18;;;;;;;24.20;3.22;;;5.00;99.90;;;;;;5001081;28;20402;-81
2022/01/17 02:12:44;;;;;;;19.35;1.80;;;4.40;99.90;;;;;;5000560;28;20449;-85
2022/01/17 02:15:15;;;;;;;24.08;2.55;;;6.20;99.90;;;;;;4997640;28;20035;-84
2022/01/17 02:17:53;;;;;;;14.70;2.63;;;6.40;99.90;;;;;;5002522;28;20526;-83
2022/01/17 02:20:22;;;;;;;25.05;2.47;;;5.00;99.90;;;;;;5001212;28;20562;-83
2022/01/17 02:22:51;;;;;;;14.55;1.55;;;5.00;99.90;;;;;;5000042;28;20054;-82
2022/01/17 02:25:17;;;;;;;21.48;2.25;;;3.30;99.90;;;;;;5005654;28;20045;-84
2022/01/17 02:27:44;;;;;;;20.02;2.92;;;5.00;99.90;;;;;;4999000;28;20038;-85
2022/01/17 02:30:12;;;;;;;19.30;2.85;;;4.70;99.90;;;;;;4998630;28;20141;-81
2022/01/17 02:32:38;;;;;;;20.85;2.03;;;5.00;99.90;;;;;;5001498;28;20050;-82
2022/01/17 02:35:15;;;;;;;19.38;2.65;;;4.90;99.90;;;;;;4999638;28;20038;-83
2022/01/17 02:37:41;;;;;;;14.57;2.40;;;4.90;99.90;;;;;;4995522;28;20470;-85
2022/01/17 02:40:08;;;;;;;21.08;2.85;;;4.80;99.90;;;;;;4998493;28;20046;-81
2022/01/17 02:42:35;;;;;;;15.40;2.30;;;4.90;99.90;;;;;;4995099;28;20100;-83
2022/01/17 02:45:11;;;;;;;24.73;3.72;;;4.70;99.90;;;;;;5001722;28;20050;-84
2022/01/17 02:47:36;;;;;;;20.95;2.70;;;4.70;99.90;;;;;;5002681;28;20050;-85
2022/01/17 02:50:03;;;;;;;24.88;3.03;;;4.60;99.90;;;;;;5022617;28;20173;-83
2022/01/17 02:52:28;;;;;;;20.35;2.15;;;4.80;99.90;;;;;;4998737;28;20153;-80
2022/01/17 02:54:54;;;;;;;19.95;3.67;;;4.40;99.90;;;;;;4989875;28;20161;-83
2022/01/17 02:57:19;;;;;;;10.60;2.55;;;4.80;99.90;;;;;;4998695;28;20045;-85
2022/01/17 02:59:45;;;;;;;27.88;2.70;;;4.80;99.90;;;;;;5007140;28;20038;-86
2022/01/17 03:02:11;;;;;;;20.92;2.90;;;4.70;99.90;;;;;;4998771;28;20376;-85
2022/01/17 03:04:36;;;;;;;16.20;2.15;;;4.20;99.90;;;;;;5000470;28;20518;-81
2022/01/17 03:07:02;;;;;;;21.38;3.08;;;4.60;99.90;;;;;;4998188;28;20081;-84
2022/01/17 03:09:34;;;;;;;20.90;3.20;;;4.80;99.90;;;;;;5022039;28;20046;-84
2022/01/17 03:12:00;;;;;;;15.00;2.65;;;4.80;99.90;;;;;;5005508;28;20394;-85
2022/01/17 03:14:26;;;;;;;22.80;2.80;;;4.50;99.90;;;;;;5004172;28;20049;-83
2022/01/17 03:16:52;;;;;;;25.95;2.42;;;4.70;99.90;;;;;;5000457;28;20402;-84
2022/01/17 03:19:17;;;;;;;20.05;3.28;;;4.80;99.90;;;;;;5003458;28;20046;-80
2022/01/17 03:21:43;;;;;;;23.98;3.58;;;4.80;99.90;;;;;;5005550;28;20041;-84
2022/01/17 03:24:08;;;;;;;22.58;3.25;;;4.80;99.90;;;;;;4994985;28;20049;-83
2022/01/17 03:26:34;;;;;;;24.23;2.55;;;4.60;99.90;;;;;;5000537;28;20088;-83
2022/01/17 03:29:01;;;;;;;22.23;2.70;;;4.00;99.90;;;;;;5000734;28;20069;-86
2022/01/17 03:31:27;;;;;;;17.38;2.53;;;3.40;99.90;;;;;;5001058;28;20061;-83
2022/01/17 03:33:53;;;;;;;17.13;2.55;;;4.90;99.90;;;;;;4991912;28;20049;-84
2022/01/17 03:36:20;;;;;;;14.70;2.65;;;4.90;99.90;;;;;;5003710;28;20387;-80
2022/01/17 03:38:46;;;;;;;20.45;2.85;;;4.80;99.90;;;;;;5016615;28;20072;-82
2022/01/17 03:41:14;;;;;;;14.30;2.38;;;4.80;99.90;;;;;;4984218;28;20042;-83
2022/01/17 03:43:40;;;;;;;23.25;2.80;;;4.80;99.90;;;;;;5009109;28;20128;-84
2022/01/17 03:46:05;;;;;;;16.23;2.75;;;4.80;99.90;;;;;;4997060;28;20545;-82
2022/01/17 03:48:32;;;;;;;18.40;3.00;;;4.80;99.90;;;;;;4988999;28;20444;-84
2022/01/17 03:51:01;;;;;;;17.60;2.28;;;4.80;99.90;;;;;;5003151;28;20049;-85
2022/01/17 03:53:27;;;;;;;15.98;2.90;;;;;;;;;;5004266;28;20046;-84
2022/01/17 03:55:54;;;;;;;16.90;2.05;;;5.10;99.90;;;;;;5008332;28;20045;-82
2022/01/17 03:58:21;;;;;;;16.80;2.25;;;6.00;99.90;;;;;;5005380;28;20042;-85
2022/01/17 04:00:47;;;;;;;18.70;2.60;;;5.00;99.90;;;;;;5003196;28;20049;-85
2022/01/17 04:03:14;;;;;;;26.02;2.53;;;5.10;99.90;;;;;;5000500;28;20049;-84
2022/01/17 04:05:39;;;;;;;23.58;2.42;;;4.80;99.90;;;;;;5008115;28;20053;-84
2022/01/17 04:08:06;;;;;;;14.48;2.92;;;5.00;99.90;;;;;;5002289;28;20038;-83
2022/01/17 04:10:32;;;;;;;24.83;2.40;;;4.50;99.90;;;;;;5004794;28;20054;-84
2022/01/17 04:13:04;;;;;;;12.82;2.53;;;4.80;99.90;;;;;;5004750;28;20048;-82
2022/01/17 04:15:32;;;;;;;19.65;2.83;;;5.00;99.90;;;;;;5002826;28;20044;-84
2022/01/17 04:17:58;;;;;;;17.02;2.88;;;6.80;99.90;;;;;;4999969;28;20491;-84
2022/01/17 04:20:27;;;;;;;12.18;1.73;;;5.10;99.90;;;;;;5008326;28;20042;-81
2022/01/17 04:22:54;;;;;;;12.48;1.75;;;5.20;99.90;;;;;;5021015;28;20482;-83
2022/01/17 04:25:22;;;;;;;14.48;2.50;;;5.10;99.90;;;;;;4990246;28;20046;-83
2022/01/17 04:27:49;;;;;;;15.98;1.58;;;5.10;99.90;;;;;;5003783;28;20046;-81
2022/01/17 04:30:15;;;;;;;15.85;1.92;;;5.10;99.90;;;;;;5003055;28;20057;-85
2022/01/17 04:32:43;;;;;;;14.73;2.17;;;7.30;99.90;;;;;;5027452;28;20125;-82
2022/01/17 04:35:11;;;;;;;14.88;2.33;;;5.10;99.90;;;;;;5002491;28;20410;-81
2022/01/17 04:37:37;;;;;;;20.13;2.55;;;5.10;99.90;;;;;;5002598;28;20065;-80
2022/01/17 04:40:03;;;;;;;16.15;2.20;;;5.30;99.90;;;;;;5016049;28;20042;-84
2022/01/17 04:42:29;;;;;;;23.05;3.22;;;5.30;99.90;;;;;;4997682;28;20038;-82
2022/01/17 04:45:07;;;;;;;16.13;2.53;;;5.30;99.90;;;;;;5001057;28;20123;-83
2022/01/17 04:47:36;;;;;;;20.52;3.03;;;4.90;99.90;;;;;;4991062;28;20398;-84
2022/01/17 04:50:06;;;;;;;16.98;2.45;;;4.90;99.90;;;;;;4986461;28;20052;-83
2022/01/17 04:52:32;;;;;;;16.98;2.53;;;5.40;99.90;;;;;;5009482;28;20108;-84
2022/01/17 04:55:02;;;;;;;13.55;1.98;;;5.20;99.90;;;;;;4989051;28;20124;-81
2022/01/17 04:57:27;;;;;;;19.83;2.20;;;5.40;99.90;;;;;;4997930;28;20042;-83
2022/01/17 04:59:53;;;;;;;15.80;2.72;;;6.80;99.90;;;;;;5006172;28;20046;-81
2022/01/17 05:02:19;;;;;;;19.23;2.00;;;7.20;99.90;;;;;;5007878;28;20042;-83
2022/01/17 05:04:45;;;;;;;19.38;2.28;;;5.00;99.90;;;;;;5005539;28;20049;-85
2022/01/17 05:07:12;;;;;;;12.30;1.70;;;5.00;99.90;;;;;;4992542;28;20386;-80
2022/01/17 05:09:41;;;;;;;25.90;3.42;;;5.20;99.90;;;;;;5004483;28;20046;-84
2022/01/17 05:12:08;;;;;;;14.45;2.25;;;5.70;99.90;;;;;;4999582;28;20044;-82
2022/01/17 05:14:34;;;;;;;11.15;2.72;;;5.70;99.90;;;;;;5005204;28;20104;-79
2022/01/17 05:17:09;;;;;;;26.88;3.72;;;8.10;99.90;;;;;;5010717;28;20076;-86
2022/01/17 05:19:51;;;;;;;14.98;2.10;;;5.70;99.90;;;;;;5005261;28;20064;-87
2022/01/17 05:22:17;;;;;;;12.40;1.90;;;6.10;99.90;;;;;;4992653;28;20356;-87
2022/01/17 05:24:43;;;;;;;17.48;2.53;;;5.70;99.90;;;;;;5003813;28;20042;-86
2022/01/17 05:27:09;;;;;;;16.73;2.50;;;7.70;99.90;;;;;;4999158;28;20438;-83
2022/01/17 05:29:35;;;;;;;15.25;2.53;;;5.60;99.90;;;;;;5001426;28;20137;-81
2022/01/17 05:32:00;;;;;;;18.58;3.90;;;5.50;99.90;;;;;;5004702;28;20060;-81
2022/01/17 05:34:26;;;;;;;23.02;3.88;;;5.90;99.90;;;;;;4987477;28;20042;-81
2022/01/17 05:36:52;;;;;;;19.00;2.67;;;5.80;99.90;;;;;;5006134;28;20107;-81
2022/01/17 05:39:18;;;;;;;20.95;3.63;;;5.90;99.90;;;;;;5004945;28;20038;-80
2022/01/17 05:41:43;;;;;;;16.42;3.03;;;6.00;99.90;;;;;;4991586;28;20065;-85
2022/01/17 05:44:09;;;;;;;19.08;2.95;;;6.00;99.90;;;;;;5001723;28;20062;-85
2022/01/17 05:46:34;;;;;;;17.25;2.63;;;6.00;99.90;;;;;;4998965;28;20049;-87
2022/01/17 05:49:00;;;;;;;20.27;2.42;;;6.10;99.90;;;;;;4997257;28;20042;-84
2022/01/17 05:51:25;;;;;;;20.58;2.92;;;7.10;99.90;;;;;;4986917;28;20124;-86
2022/01/17 05:53:51;;;;;;;22.30;3.35;;;6.10;99.90;;;;;;5002142;28;20046;-81
2022/01/17 05:56:17;;;;;;;15.27;3.58;;;6.10;99.90;;;;;;5001211;28;20045;-81
2022/01/17 05:58:42;;;;;;;22.15;3.67;;;6.10;99.90;;;;;;4987780;28;20048;-84
2022/01/17 06:01:09;;;;;;;23.13;3.05;;;6.10;99.90;;;;;;5004526;28;20056;-81
2022/01/17 06:03:35;;;;;;;22.45;3.05;;;5.80;99.90;;;;;;5002749;28;20470;-84
2022/01/17 06:06:03;;;;;;;14.80;2.63;;;6.00;99.90;;;;;;4992737;28;20038;-84
2022/01/17 06:08:29;;;;;;;14.68;2.92;;;7.10;99.90;;;;;;4999518;28;20046;-83
2022/01/17 06:10:55;;;;;;;24.27;4.28;;;8.10;99.90;;;;;;5000934;28;20038;-87
2022/01/17 06:13:21;;;;;;;15.88;3.45;;;6.00;99.90;;;;;;5001350;28;20060;-80
2022/01/17 06:15:46;;;;;;;25.08;3.22;;;6.10;99.90;;;;;;4997724;28;20046;-84
2022/01/17 06:18:12;;;;;;;29.55;4.00;;;6.10;99.90;;;;;;5005595;28;20074;-84
2022/01/17 06:20:38;;;;;;;25.27;3.97;;;6.10;99.90;;;;;;5004394;28;20054;-83
2022/01/17 06:23:03;;;;;;;17.98;2.67;;;6.00;99.90;;;;;;4985441;28;20038;-84
2022/01/17 06:25:29;;;;;;;23.52;4.13;;;6.10;99.90;;;;;;4998532;28;20038;-81
2022/01/17 06:27:55;;;;;;;21.52;3.42;;;6.00;99.90;;;;;;4999770;28;20050;-81
2022/01/17 06:30:20;;;;;;;22.08;3.63;;;6.10;99.90;;;;;;4991582;28;20159;-84
2022/01/17 06:32:46;;;;;;;21.50;4.20;;;6.20;99.90;;;;;;5006823;28;20049;-85
2022/01/17 06:35:12;;;;;;;22.35;3.85;;;6.00;99.90;;;;;;4998078;28;20046;-79
2022/01/17 06:37:39;;;;;;;24.30;4.03;;;6.00;99.90;;;;;;4987250;28;20047;-83
2022/01/17 06:40:19;;;;;;;27.23;4.03;;;6.00;99.90;;;;;;4779227;28;10000715;-78
2022/01/17 06:42:45;;;;;;;20.77;4.15;;;7.80;99.90;;;;;;4994717;28;20609;-77
2022/01/17 06:45:13;;;;;;;28.52;4.65;;;6.10;99.90;;;;;;4995785;28;20038;-77
2022/01/17 06:47:39;;;;;;;27.02;4.13;;;6.00;99.90;;;;;;5000091;28;20054;-80
2022/01/17 06:50:06;;;;;;;33.15;5.07;;;6.10;99.90;;;;;;5001047;28;20383;-79
2022/01/17 06:52:32;;;;;;;29.83;4.88;;;6.00;99.90;;;;;;4980158;28;20639;-78
2022/01/17 06:54:58;;;;;;;26.33;3.90;;;6.30;99.90;;;;;;4999409;28;20049;-77
2022/01/17 06:57:25;;;;;;;21.40;3.58;;;4.40;99.90;;;;;;5000875;28;20388;-80
2022/01/17 06:59:50;;;;;;;22.67;3.40;;;6.00;99.90;;;;;;4997228;28;20410;-78
2022/01/17 07:02:16;;;;;;;29.02;3.25;;;6.00;99.90;;;;;;4999315;28;20049;-78
2022/01/17 07:04:42;;;;;;;28.60;3.63;;;5.50;99.90;;;;;;4998821;28;20486;-78
2022/01/17 07:07:07;;;;;;;19.33;4.30;;;5.80;99.90;;;;;;4998730;28;20437;-81
2022/01/17 07:09:33;;;;;;;19.33;3.67;;;5.60;99.90;;;;;;5007358;28;20056;-81
2022/01/17 07:11:59;;;;;;;30.08;4.55;;;5.70;99.90;;;;;;4998285;28;20049;-77
2022/01/17 07:14:27;;;;;;;22.17;3.42;;;6.00;99.90;;;;;;5000681;28;20458;-80
2022/01/17 07:16:53;;;;;;;26.15;4.47;;;5.60;99.90;;;;;;5003362;28;20390;-78
2022/01/17 07:19:18;;;;;;;22.52;3.78;;;5.90;99.90;;;;;;5002433;28;20497;-78
2022/01/17 07:21:44;;;;;;;27.80;3.95;;;6.10;99.90;;;;;;5003505;28;20045;-78
2022/01/17 07:24:10;;;;;;;35.88;4.40;;;5.90;99.90;;;;;;5002065;28;20104;-80
2022/01/17 07:26:36;;;;;;;36.38;5.18;;;6.30;99.90;;;;;;4999929;28;20450;-79
2022/01/17 07:29:05;;;;;;;22.75;3.63;;;6.20;99.90;;;;;;5006886;28;20121;-78
2022/01/17 07:31:32;;;;;;;24.70;2.75;;;6.20;99.90;;;;;;4988857;28;20041;-80
2022/01/17 07:33:58;;;;;;;25.90;4.43;;;6.10;99.90;;;;;;4987310;28;20080;-81
2022/01/17 07:36:24;;;;;;;33.53;3.47;;;6.30;99.90;;;;;;4982493;28;20042;-78
2022/01/17 07:38:49;;;;;;;34.08;5.28;;;6.20;99.90;;;;;;5010128;28;20119;-81
2022/01/17 07:41:16;;;;;;;32.22;3.95;;;6.30;99.90;;;;;;5005370;28;20042;-81
2022/01/17 07:43:43;;;;;;;27.77;4.35;;;6.30;99.90;;;;;;4997214;28;20046;-81
2022/01/17 07:46:22;;;;;;;43.67;5.18;;;6.20;99.90;;;;;;5011105;28;20037;-78
2022/01/17 07:51:29;;;;;;;23.90;3.40;;;6.10;99.90;;;;;;5003637;28;20134;-80
2022/01/17 07:53:56;;;;;;;33.65;4.03;;;6.20;99.90;;;;;;5002960;28;20084;-81
2022/01/17 07:56:23;;;;;;;30.98;4.80;;;6.30;99.90;;;;;;5001172;28;20046;-79
2022/01/17 07:58:49;;;;;;;42.75;4.78;;;6.50;99.90;;;;;;4999462;28;20046;-81
2022/01/17 08:01:15;;;;;;;30.42;5.07;;;5.10;99.90;;;;;;5004160;28;20056;-80
2022/01/17 08:03:41;;;;;;;38.22;4.93;;;6.30;99.90;;;;;;4987596;28;20042;-80
2022/01/17 08:06:07;;;;;;;35.50;5.03;;;6.70;99.90;;;;;;5003312;28;20056;-81
2022/01/17 08:08:33;;;;;;;31.58;4.20;;;6.50;99.90;;;;;;5004740;28;20041;-79
2022/01/17 08:10:58;;;;;;;30.45;4.85;;;6.90;99.90;;;;;;5009743;28;20453;-81
2022/01/17 08:13:25;;;;;;;28.75;5.38;;;6.70;99.90;;;;;;4999056;28;20046;-82
2022/01/17 08:15:50;;;;;;;43.42;5.35;;;6.90;99.90;;;;;;4996292;28;20558;-81
2022/01/17 08:18:16;;;;;;;41.78;6.28;;;6.60;99.90;;;;;;5024316;28;20121;-80
2022/01/17 08:20:43;;;;;;;34.22;5.82;;;6.20;99.90;;;;;;5011125;28;20046;-80
2022/01/17 08:23:09;;;;;;;29.63;4.38;;;6.20;99.90;;;;;;5002802;28;20042;-81
2022/01/17 08:25:36;;;;;;;34.72;4.75;;;6.40;99.90;;;;;;5002153;28;20053;-81
2022/01/17 08:28:03;;;;;;;31.70;4.35;;;6.70;99.90;;;;;;4989798;28;20050;-81
2022/01/17 08:30:30;;;;;;;32.10;4.70;;;6.80;99.90;;;;;;5005227;28;20436;-81
2022/01/17 08:32:56;;;;;;;28.38;3.92;;;6.10;99.90;;;;;;5006674;28;20044;-81
2022/01/17 08:35:22;;;;;;;35.15;5.18;;;6.20;99.90;;;;;;5014389;28;20042;-81
2022/01/17 08:37:48;;;;;;;31.00;4.97;;;6.30;99.90;;;;;;5003636;28;20046;-81
2022/01/17 08:40:15;;;;;;;37.75;6.00;;;6.80;99.90;;;;;;5002681;28;20053;-82
2022/01/17 08:42:40;;;;;;;28.83;4.20;;;6.90;99.90;;;;;;4999924;28;20038;-81
2022/01/17 08:45:09;;;;;;;37.00;6.47;;;6.50;99.90;;;;;;5010873;28;20046;-81
2022/01/17 08:47:35;;;;;;;32.65;4.55;;;9.00;99.90;;;;;;5002442;28;20479;-81
2022/01/17 08:50:02;;;;;;;29.73;4.53;;;5.60;99.90;;;;;;5002623;28;20050;-81
2022/01/17 08:52:28;;;;;;;33.03;7.20;;;7.40;99.90;;;;;;5003281;28;20046;-81
2022/01/17 08:54:53;;;;;;;32.08;4.57;;;6.80;99.90;;;;;;5003243;28;20049;-81
2022/01/17 08:57:19;;;;;;;34.70;4.10;;;6.50;99.90;;;;;;5003384;28;20465;-81
2022/01/17 08:59:45;;;;;;;21.83;3.80;;;6.80;99.90;;;;;;5004799;28;20405;-81
2022/01/17 09:02:12;;;;;;;36.92;5.93;;;7.00;99.90;;;;;;4997660;28;20481;-81
2022/01/17 09:04:41;;;;;;;31.42;4.88;;;7.10;99.90;;;;;;5007471;28;20435;-81
2022/01/17 09:07:11;;;;;;;46.47;12.20;;;6.80;99.90;;;;;;5003754;28;20045;-80
2022/01/17 09:09:38;;;;;;;34.05;4.93;;;7.20;99.90;;;;;;5000159;28;20046;-81
2022/01/17 09:12:07;;;;;;;28.58;4.55;;;7.90;99.90;;;;;;5008545;28;20045;-81
2022/01/17 09:14:33;;;;;;;37.00;5.18;;;7.30;99.90;;;;;;4988554;28;20046;-81
2022/01/17 09:16:59;;;;;;;35.05;5.32;;;6.90;99.90;;;;;;5009823;28;20092;-81
2022/01/17 09:19:26;;;;;;;27.88;4.22;;;7.30;99.90;;;;;;5001223;28;20867;-81
2022/01/17 09:21:54;;;;;;;31.88;4.85;;;7.30;99.90;;;;;;4999513;28;20070;-82
2022/01/17 09:24:20;;;;;;;45.03;5.82;;;9.30;99.90;;;;;;5005257;28;20547;-80
2022/01/17 09:26:46;;;;;;;32.88;4.85;;;7.40;99.90;;;;;;5000763;28;20041;-77
2022/01/17 09:29:12;;;;;;;30.55;6.43;;;9.30;99.90;;;;;;5000309;28;20394;-79
2022/01/17 09:31:38;;;;;;;32.55;6.25;;;7.50;99.90;;;;;;4991096;28;20058;-78
2022/01/17 09:34:04;;;;;;;45.95;7.72;;;7.50;99.90;;;;;;5007345;28;20053;-80
2022/01/17 09:36:33;;;;;;;34.35;5.82;;;7.50;99.90;;;;;;5000339;28;20053;-81
2022/01/17 09:38:59;;;;;;;39.65;6.95;;;7.40;99.90;;;;;;5003731;28;20391;-81
2022/01/17 09:41:25;;;;;;;37.80;6.90;;;7.60;99.90;;;;;;4999593;28;20046;-81
2022/01/17 09:43:52;;;;;;;41.13;5.22;;;7.60;99.90;;;;;;5000311;28;20042;-81
2022/01/17 09:46:22;;;;;;;39.47;6.75;;;7.60;99.90;;;;;;5006564;28;20148;-79
2022/01/17 09:48:50;;;;;;;31.88;5.78;;;7.60;99.90;;;;;;5008554;28;20466;-82
2022/01/17 09:51:33;;;;;;;39.80;7.07;;;7.50;99.90;;;;;;5001480;28;20532;-80
2022/01/17 09:53:59;;;;;;;31.25;6.38;;;7.70;99.90;;;;;;5004926;28;20045;-80
2022/01/17 09:56:28;;;;;;;43.80;6.13;;;7.80;99.90;;;;;;5000028;28;20041;-81
2022/01/17 09:58:54;;;;;;;45.50;7.45;;;7.80;99.90;;;;;;5023117;28;20517;-81
2022/01/17 10:01:19;;;;;;;39.63;5.82;;;7.90;99.90;;;;;;5000024;28;20064;-80
2022/01/17 10:03:46;;;;;;;34.17;5.75;;;7.90;99.90;;;;;;5001778;28;20100;-81
2022/01/17 10:06:12;;;;;;;38.20;8.15;;;7.90;99.90;;;;;;4997066;28;20074;-81
2022/01/17 10:08:38;;;;;;;44.63;7.03;;;7.90;99.90;;;;;;5017379;28;20077;-80
2022/01/17 10:11:15;;;;;;;46.00;7.32;;;7.90;99.90;;;;;;5026597;28;20042;-80
2022/01/17 10:13:45;;;;;;;43.50;6.65;;;8.00;99.90;;;;;;5003288;28;20046;-83
2022/01/17 10:16:14;;;;;;;38.65;7.30;;;8.00;99.90;;;;;;5003067;28;20132;-80
2022/01/17 10:18:46;;;;;;;44.67;7.07;;;8.10;99.90;;;;;;5020089;28;20046;-80
2022/01/17 10:21:41;;;;;;;30.45;4.97;;;9.80;99.90;;;;;;4999891;28;20049;-81
2022/01/17 10:24:19;;;;;;;38.72;6.07;;;8.10;99.90;;;;;;5003504;28;20050;-79
2022/01/17 10:29:58;;;;;;;43.13;7.35;;;8.00;99.90;;;;;;5008810;28;20038;-79
2022/01/17 10:35:23;;;;;;;48.50;6.95;;;8.90;99.90;;;;;;5020623;28;20096;-79
2022/01/17 10:38:04;;;;;;;42.20;6.25;;;8.30;99.90;;;;;;5000733;28;20038;-81
2022/01/17 10:40:33;;;;;;;37.65;5.88;;;8.30;99.90;;;;;;4994165;28;20046;-81
2022/01/17 10:43:01;;;;;;;41.28;6.60;;;8.30;99.90;;;;;;5004616;28;20034;-82
2022/01/17 10:45:33;;;;;;;45.10;6.90;;;7.80;99.90;;;;;;4999918;28;20045;-82
2022/01/17 10:48:00;;;;;;;41.58;6.35;;;8.20;99.90;;;;;;5003077;28;20426;-81
2022/01/17 10:50:55;;;;;;;51.13;8.38;;;8.80;99.90;;;;;;5004547;28;20048;-81
2022/01/17 10:53:21;;;;;;;44.35;6.47;;;8.20;99.90;;;;;;4994519;28;20049;-79
2022/01/17 10:55:50;;;;;;;55.08;9.60;;;8.30;99.90;;;;;;5007476;28;20406;-81
2022/01/17 10:58:23;;;;;;;49.17;7.70;;;8.30;99.90;;;;;;5007578;28;20092;-81
2022/01/17 11:00:50;;;;;;;44.42;6.65;;;8.20;99.90;;;;;;5012782;28;20050;-81
2022/01/17 11:03:19;;;;;;;49.50;8.80;;;8.30;99.90;;;;;;4315051;28;10021508;-80
2022/01/17 11:05:47;;;;;;;44.28;7.68;;;8.30;99.90;;;;;;5003548;28;20033;-80
2022/01/17 11:08:15;;;;;;;46.72;7.90;;;8.40;99.90;;;;;;5006179;28;20049;-80
2022/01/17 11:10:44;;;;;;;44.03;7.35;;;8.30;99.90;;;;;;5009952;28;20042;-81
2022/01/17 11:13:18;;;;;;;45.90;7.93;;;8.40;99.90;;;;;;5007266;28;20502;-81
2022/01/17 11:15:46;;;;;;;49.00;8.63;;;8.40;99.90;;;;;;5001085;28;20046;-81
2022/01/17 11:18:20;;;;;;;49.03;8.25;;;8.40;99.90;;;;;;5003098;28;20057;-78
2022/01/17 11:20:47;;;;;;;44.53;6.17;;;8.40;99.90;;;;;;5000773;28;20042;-81
2022/01/17 11:23:13;;;;;;;47.83;7.88;;;8.50;99.90;;;;;;5002021;28;20284;-81
2022/01/17 11:25:43;;;;;;;56.30;17.05;;;8.60;99.90;;;;;;5001175;28;20406;-82
2022/01/17 11:28:09;;;;;;;61.65;8.23;;;8.60;99.90;;;;;;4997625;28;20085;-79
2022/01/17 11:30:37;;;;;;;47.53;7.20;;;8.60;99.90;;;;;;4981486;28;20062;-82
2022/01/17 11:33:04;;;;;;;41.05;7.10;;;8.60;99.90;;;;;;5000645;28;20046;-79
2022/01/17 11:35:32;;;;;;;38.00;7.22;;;8.70;99.90;;;;;;5001538;28;20437;-77
2022/01/17 11:37:59;;;;;;;52.63;8.05;;;8.60;99.90;;;;;;4998492;28;20049;-78
2022/01/17 11:40:36;;;;;;;53.78;7.50;;;8.70;99.90;;;;;;5001992;28;20060;-79
2022/01/17 11:43:22;;;;;;;58.40;8.23;;;8.80;99.90;;;;;;5003291;28;20441;-82
2022/01/17 11:45:53;;;;;;;41.50;7.63;;;8.80;99.90;;;;;;5001275;28;20050;-78
2022/01/17 11:48:22;;;;;;;45.50;8.95;;;8.80;99.90;;;;;;4996563;28;20081;-81
2022/01/17 11:50:49;;;;;;;44.95;6.80;;;8.80;99.90;;;;;;5006874;28;20046;-79
2022/01/17 11:53:15;;;;;;;49.35;7.65;;;9.60;99.90;;;;;;5011258;28;20042;-80
2022/01/17 11:55:43;;;;;;;42.88;7.65;;;8.60;99.90;;;;;;4995432;28;20045;-78
2022/01/17 11:58:30;;;;;;;46.15;9.38;;;8.90;99.90;;;;;;4996755;28;20532;-79
2022/01/17 12:00:59;;;;;;;46.20;7.72;;;8.90;99.90;;;;;;5022281;28;20050;-79
2022/01/17 12:03:45;;;;;;;53.05;7.57;;;8.80;99.90;;;;;;5004617;28;20184;-83
2022/01/17 12:06:28;;;;;;;44.67;8.27;;;8.90;99.90;;;;;;4984645;28;20085;-83
2022/01/17 12:09:25;;;;;;;43.13;8.52;;;8.80;99.90;;;;;;5012589;28;20052;-82
2022/01/17 12:12:12;;;;;;;57.03;8.88;;;8.80;99.90;;;;;;4998314;28;20053;-83
2022/01/17 12:14:42;;;;;;;50.58;7.97;;;9.10;99.90;;;;;;5009020;28;20056;-82
2022/01/17 12:17:19;;;;;;;49.22;8.10;;;8.60;99.90;;;;;;5005785;28;20081;-82
2022/01/17 12:20:03;;;;;;;57.67;9.60;;;8.90;99.90;;;;;;4999220;28;20054;-82
2022/01/17 12:22:54;;;;;;;51.22;8.43;;;8.80;99.90;;;;;;4982311;28;20046;-82
2022/01/17 12:25:31;;;;;;;52.03;8.73;;;8.90;99.90;;;;;;5006612;28;20049;-83
2022/01/17 12:28:03;;;;;;;43.60;9.23;;;10.30;99.90;;;;;;5001813;28;20136;-82
2022/01/17 12:30:55;;;;;;;64.38;9.85;;;8.90;99.90;;;;;;4993804;28;20050;-82
2022/01/17 12:33:40;;;;;;;51.90;8.88;;;8.90;99.90;;;;;;4990057;28;20502;-83
2022/01/17 12:36:24;;;;;;;45.83;8.38;;;8.80;99.90;;;;;;5000804;28;20390;-82
2022/01/17 12:38:51;;;;;;;52.78;8.75;;;8.80;99.90;;;;;;4992991;28;20054;-83
2022/01/17 12:41:37;;;;;;;46.30;7.75;;;8.80;99.90;;;;;;5002383;28;20092;-83
2022/01/17 12:44:22;;;;;;;44.78;7.75;;;8.80;99.90;;;;;;5025850;28;20087;-82
2022/01/17 12:46:54;;;;;;;49.42;8.35;;;8.80;99.90;;;;;;5005329;28;20050;-83
2022/01/17 12:49:21;;;;;;;48.28;8.15;;;8.70;99.90;;;;;;5002896;28;20370;-81
2022/01/17 12:51:49;;;;;;;42.38;8.00;;;8.60;99.90;;;;;;5000750;28;20069;-83
2022/01/17 12:54:18;;;;;;;48.03;7.30;;;8.50;99.90;;;;;;5002982;28;20137;-82
2022/01/17 12:56:45;;;;;;;59.00;10.60;;;8.70;99.90;;;;;;5001897;28;20089;-81
2022/01/17 12:59:11;;;;;;;51.58;7.03;;;8.70;99.90;;;;;;5001918;28;20038;-80
2022/01/17 13:01:49;;;;;;;54.22;8.40;;;8.40;99.90;;;;;;4985891;28;20053;-83
2022/01/17 13:04:16;;;;;;;46.95;8.57;;;8.70;99.90;;;;;;4993764;28;20042;-81
2022/01/17 13:06:44;;;;;;;49.38;7.78;;;8.70;99.90;;;;;;4990371;28;20046;-83
2022/01/17 13:09:15;;;;;;;52.55;8.30;;;8.60;99.90;;;;;;4999624;28;20418;-82
2022/01/17 13:11:43;;;;;;;45.17;8.38;;;8.70;99.90;;;;;;5005851;28;20076;-82
2022/01/17 13:14:12;;;;;;;47.10;7.93;;;8.70;99.90;;;;;;5003729;28;20033;-82